sensor_id;sensor_type;location;lat;lon;timestamp;pressure;altitude;pressure_sealevel;temperature;humidity
14882;BME280;7533;51.278;12.588;2024-02-26T00:04:49;98803.66;;;24.79;52.89
14882;BME280;7533;51.278;12.588;2024-02-26T00:09:52;98809.75;;;24.73;52.79
14882;BME280;7533;51.278;12.588;2024-02-26T00:14:55;98801.25;;;24.68;53.30
14882;BME280;7533;51.278;12.588;2024-02-26T00:20:01;98792.78;;;24.63;53.37
14882;BME280;7533;51.278;12.588;2024-02-26T00:25:06;98788.88;;;24.57;53.60
14882;BME280;7533;51.278;12.588;2024-02-26T00:30:10;98781.41;;;24.51;53.48
14882;BME280;7533;51.278;12.588;2024-02-26T00:35:15;98779.19;;;24.46;53.84
14882;BME280;7533;51.278;12.588;2024-02-26T00:40:18;98775.13;;;24.42;53.93
14882;BME280;7533;51.278;12.588;2024-02-26T00:45:21;98762.09;;;24.38;53.94
14882;BME280;7533;51.278;12.588;2024-02-26T00:50:25;98765.25;;;24.33;54.22
14882;BME280;7533;51.278;12.588;2024-02-26T00:55:28;98764.03;;;24.27;54.28
14882;BME280;7533;51.278;12.588;2024-02-26T01:00:31;98752.69;;;24.24;54.23
14882;BME280;7533;51.278;12.588;2024-02-26T01:05:35;98751.34;;;24.20;54.43
14882;BME280;7533;51.278;12.588;2024-02-26T01:10:39;98751.66;;;24.17;54.59
14882;BME280;7533;51.278;12.588;2024-02-26T01:15:41;98749.59;;;24.11;54.72
14882;BME280;7533;51.278;12.588;2024-02-26T01:20:47;98741.97;;;24.06;55.03
14882;BME280;7533;51.278;12.588;2024-02-26T01:25:50;98738.56;;;24.04;55.17
14882;BME280;7533;51.278;12.588;2024-02-26T01:30:53;98731.63;;;24.01;55.25
14882;BME280;7533;51.278;12.588;2024-02-26T01:35:57;98731.97;;;23.98;55.24
14882;BME280;7533;51.278;12.588;2024-02-26T01:41:00;98720.59;;;23.95;55.44
14882;BME280;7533;51.278;12.588;2024-02-26T01:46:03;98719.09;;;23.92;55.40
14882;BME280;7533;51.278;12.588;2024-02-26T01:51:08;98702.34;;;23.89;55.56
14882;BME280;7533;51.278;12.588;2024-02-26T01:56:12;98699.97;;;23.86;55.68
14882;BME280;7533;51.278;12.588;2024-02-26T02:01:19;98692.19;;;23.83;55.69
14882;BME280;7533;51.278;12.588;2024-02-26T02:06:27;98691.63;;;23.79;55.71
14882;BME280;7533;51.278;12.588;2024-02-26T02:11:30;98690.13;;;23.77;55.78
14882;BME280;7533;51.278;12.588;2024-02-26T02:16:33;98689.44;;;23.74;55.95
14882;BME280;7533;51.278;12.588;2024-02-26T02:21:38;98679.78;;;23.72;55.95
14882;BME280;7533;51.278;12.588;2024-02-26T02:26:40;98687.38;;;23.68;56.05
14882;BME280;7533;51.278;12.588;2024-02-26T02:31:43;98695.63;;;23.67;56.26
14882;BME280;7533;51.278;12.588;2024-02-26T02:36:51;98694.94;;;23.65;56.18
14882;BME280;7533;51.278;12.588;2024-02-26T02:41:54;98694.38;;;23.61;56.29
14882;BME280;7533;51.278;12.588;2024-02-26T02:46:57;98699.94;;;23.60;56.46
14882;BME280;7533;51.278;12.588;2024-02-26T02:52:02;98722.38;;;23.60;56.42
14882;BME280;7533;51.278;12.588;2024-02-26T02:57:04;98719.16;;;23.57;56.55
14882;BME280;7533;51.278;12.588;2024-02-26T03:02:07;98720.16;;;23.56;56.61
14882;BME280;7533;51.278;12.588;2024-02-26T03:07:12;98722.19;;;23.54;56.76
14882;BME280;7533;51.278;12.588;2024-02-26T03:12:15;98729.59;;;23.52;56.77
14882;BME280;7533;51.278;12.588;2024-02-26T03:17:18;98729.91;;;23.48;56.79
14882;BME280;7533;51.278;12.588;2024-02-26T03:22:22;98731.06;;;23.46;56.89
14882;BME280;7533;51.278;12.588;2024-02-26T03:27:25;98733.91;;;23.44;56.94
14882;BME280;7533;51.278;12.588;2024-02-26T03:32:28;98734.25;;;23.41;57.06
14882;BME280;7533;51.278;12.588;2024-02-26T03:37:32;98743.34;;;23.40;57.05
14882;BME280;7533;51.278;12.588;2024-02-26T03:42:35;98736.38;;;23.38;57.21
14882;BME280;7533;51.278;12.588;2024-02-26T03:47:38;98734.69;;;23.37;57.25
14882;BME280;7533;51.278;12.588;2024-02-26T03:52:43;98744.81;;;23.35;57.44
14882;BME280;7533;51.278;12.588;2024-02-26T04:04:02;98741.56;;;23.31;57.54
14882;BME280;7533;51.278;12.588;2024-02-26T04:09:06;98746.28;;;23.29;57.65
14882;BME280;7533;51.278;12.588;2024-02-26T04:14:11;98756.22;;;23.29;57.82
14882;BME280;7533;51.278;12.588;2024-02-26T04:19:14;98745.41;;;23.29;57.76
14882;BME280;7533;51.278;12.588;2024-02-26T04:24:18;98755.38;;;23.28;57.76
14882;BME280;7533;51.278;12.588;2024-02-26T04:29:21;98745.91;;;23.24;57.79
14882;BME280;7533;51.278;12.588;2024-02-26T04:34:24;98743.34;;;23.22;57.74
14882;BME280;7533;51.278;12.588;2024-02-26T04:39:28;98743.66;;;23.19;57.47
14882;BME280;7533;51.278;12.588;2024-02-26T04:44:31;98732.72;;;23.21;57.46
14882;BME280;7533;51.278;12.588;2024-02-26T04:49:34;98738.28;;;23.19;57.79
14882;BME280;7533;51.278;12.588;2024-02-26T04:54:38;98743.66;;;23.19;58.06
14882;BME280;7533;51.278;12.588;2024-02-26T04:59:41;98749.38;;;23.16;58.02
14882;BME280;7533;51.278;12.588;2024-02-26T05:04:45;98754.75;;;23.16;58.20
14882;BME280;7533;51.278;12.588;2024-02-26T05:09:49;98761.16;;;23.15;58.29
14882;BME280;7533;51.278;12.588;2024-02-26T05:14:52;98758.47;;;23.15;58.33
14882;BME280;7533;51.278;12.588;2024-02-26T05:19:55;98768.41;;;23.15;58.42
14882;BME280;7533;51.278;12.588;2024-02-26T05:24:59;98763.31;;;23.12;58.32
14882;BME280;7533;51.278;12.588;2024-02-26T05:30:03;98763.31;;;23.12;58.36
14882;BME280;7533;51.278;12.588;2024-02-26T05:35:07;98765.31;;;23.10;58.52
14882;BME280;7533;51.278;12.588;2024-02-26T05:40:12;98765.31;;;23.10;58.56
14882;BME280;7533;51.278;12.588;2024-02-26T05:45:15;98762.78;;;23.08;58.61
14882;BME280;7533;51.278;12.588;2024-02-26T05:50:18;98768.34;;;23.07;58.65
14882;BME280;7533;51.278;12.588;2024-02-26T05:55:22;98770.16;;;23.06;58.68
14882;BME280;7533;51.278;12.588;2024-02-26T06:00:25;98763.25;;;23.04;58.68
14882;BME280;7533;51.278;12.588;2024-02-26T06:05:28;98753.63;;;23.01;58.70
14882;BME280;7533;51.278;12.588;2024-02-26T06:10:33;98759.00;;;23.01;58.71
14882;BME280;7533;51.278;12.588;2024-02-26T06:15:35;98765.56;;;22.99;58.81
14882;BME280;7533;51.278;12.588;2024-02-26T06:20:38;98760.31;;;22.97;58.81
14882;BME280;7533;51.278;12.588;2024-02-26T06:25:42;98763.00;;;22.97;58.84
14882;BME280;7533;51.278;12.588;2024-02-26T06:30:45;98767.69;;;22.95;58.80
14882;BME280;7533;51.278;12.588;2024-02-26T06:35:48;98765.00;;;22.95;58.82
14882;BME280;7533;51.278;12.588;2024-02-26T06:40:53;98767.00;;;22.93;58.81
14882;BME280;7533;51.278;12.588;2024-02-26T06:45:56;98784.22;;;22.92;58.98
14882;BME280;7533;51.278;12.588;2024-02-26T06:50:58;98780.66;;;22.91;58.98
14882;BME280;7533;51.278;12.588;2024-02-26T06:56:03;98785.22;;;22.91;58.96
14882;BME280;7533;51.278;12.588;2024-02-26T07:01:06;98794.31;;;22.90;59.10
14882;BME280;7533;51.278;12.588;2024-02-26T07:06:10;98792.59;;;22.89;58.93
14882;BME280;7533;51.278;12.588;2024-02-26T07:11:16;98803.25;;;22.90;58.91
14882;BME280;7533;51.278;12.588;2024-02-26T07:16:20;98797.97;;;22.89;59.01
14882;BME280;7533;51.278;12.588;2024-02-26T07:21:23;98803.38;;;22.89;59.05
14882;BME280;7533;51.278;12.588;2024-02-26T07:26:28;98796.13;;;22.89;58.99
14882;BME280;7533;51.278;12.588;2024-02-26T07:31:32;98796.28;;;22.88;59.02
14882;BME280;7533;51.278;12.588;2024-02-26T07:36:35;98802.53;;;22.88;59.07
14882;BME280;7533;51.278;12.588;2024-02-26T07:41:39;98813.31;;;22.88;59.02
14882;BME280;7533;51.278;12.588;2024-02-26T07:46:42;98816.88;;;22.89;59.02
14882;BME280;7533;51.278;12.588;2024-02-26T07:51:45;98814.34;;;22.03;46.62
14882;BME280;7533;51.278;12.588;2024-02-26T07:56:49;98818.75;;;21.17;45.50
14882;BME280;7533;51.278;12.588;2024-02-26T08:01:52;98820.38;;;20.79;44.87
14882;BME280;7533;51.278;12.588;2024-02-26T08:06:59;98827.56;;;20.69;44.72
14882;BME280;7533;51.278;12.588;2024-02-26T08:12:05;98824.59;;;21.71;45.11
14882;BME280;7533;51.278;12.588;2024-02-26T08:17:08;98819.59;;;21.95;45.81
14882;BME280;7533;51.278;12.588;2024-02-26T08:22:11;98818.88;;;22.12;46.84
14882;BME280;7533;51.278;12.588;2024-02-26T08:27:19;98831.03;;;22.26;47.67
14882;BME280;7533;51.278;12.588;2024-02-26T08:32:25;98827.31;;;22.37;48.21
14882;BME280;7533;51.278;12.588;2024-02-26T08:37:28;98831.81;;;22.46;48.83
14882;BME280;7533;51.278;12.588;2024-02-26T08:42:32;98832.88;;;22.63;49.21
14882;BME280;7533;51.278;12.588;2024-02-26T08:47:35;98829.75;;;22.67;49.90
14882;BME280;7533;51.278;12.588;2024-02-26T08:52:38;98832.97;;;22.71;50.13
14882;BME280;7533;51.278;12.588;2024-02-26T08:57:43;98839.47;;;22.78;50.42
14882;BME280;7533;51.278;12.588;2024-02-26T09:02:46;98839.03;;;22.83;50.85
14882;BME280;7533;51.278;12.588;2024-02-26T09:07:51;98837.72;;;22.87;51.09
14882;BME280;7533;51.278;12.588;2024-02-26T09:12:56;98837.16;;;22.93;51.41
14882;BME280;7533;51.278;12.588;2024-02-26T09:17:59;98837.84;;;22.95;51.57
14882;BME280;7533;51.278;12.588;2024-02-26T09:23:02;98831.31;;;22.98;51.58
14882;BME280;7533;51.278;12.588;2024-02-26T09:28:06;98829.28;;;23.00;51.69
14882;BME280;7533;51.278;12.588;2024-02-26T09:33:09;98828.84;;;23.04;52.03
14882;BME280;7533;51.278;12.588;2024-02-26T09:38:13;98831.09;;;23.09;52.08
14882;BME280;7533;51.278;12.588;2024-02-26T09:43:21;98838.03;;;23.11;52.04
14882;BME280;7533;51.278;12.588;2024-02-26T09:48:24;98839.75;;;23.12;52.24
14882;BME280;7533;51.278;12.588;2024-02-26T09:53:29;98840.28;;;23.16;52.48
14882;BME280;7533;51.278;12.588;2024-02-26T09:58:35;98839.44;;;23.15;52.76
14882;BME280;7533;51.278;12.588;2024-02-26T10:03:41;98832.56;;;23.21;52.58
14882;BME280;7533;51.278;12.588;2024-02-26T10:08:45;98839.81;;;23.20;52.75
14882;BME280;7533;51.278;12.588;2024-02-26T10:13:51;98840.22;;;23.26;52.81
14882;BME280;7533;51.278;12.588;2024-02-26T10:18:54;98848.72;;;23.31;52.79
14882;BME280;7533;51.278;12.588;2024-02-26T10:24:00;98860.91;;;23.35;52.66
14882;BME280;7533;51.278;12.588;2024-02-26T10:29:05;98850.63;;;23.38;52.65
14882;BME280;7533;51.278;12.588;2024-02-26T10:34:08;98855.75;;;23.41;52.75
14882;BME280;7533;51.278;12.588;2024-02-26T10:39:12;98856.59;;;23.42;52.57
14882;BME280;7533;51.278;12.588;2024-02-26T10:44:17;98863.69;;;23.43;52.70
14882;BME280;7533;51.278;12.588;2024-02-26T10:49:21;98865.53;;;23.42;52.80
14882;BME280;7533;51.278;12.588;2024-02-26T10:54:26;98859.81;;;23.45;52.64
14882;BME280;7533;51.278;12.588;2024-02-26T10:59:32;98864.34;;;23.45;52.79
14882;BME280;7533;51.278;12.588;2024-02-26T11:04:37;98867.78;;;23.47;52.82
14882;BME280;7533;51.278;12.588;2024-02-26T11:09:41;98870.16;;;23.50;52.71
14882;BME280;7533;51.278;12.588;2024-02-26T11:14:49;98879.09;;;23.50;52.78
14882;BME280;7533;51.278;12.588;2024-02-26T11:19:57;98875.09;;;23.55;52.56
14882;BME280;7533;51.278;12.588;2024-02-26T11:25:00;98867.84;;;23.55;52.74
14882;BME280;7533;51.278;12.588;2024-02-26T11:30:09;98853.50;;;23.55;52.91
14882;BME280;7533;51.278;12.588;2024-02-26T11:35:14;98855.34;;;23.54;52.88
14882;BME280;7533;51.278;12.588;2024-02-26T11:40:18;98847.25;;;23.54;53.05
14882;BME280;7533;51.278;12.588;2024-02-26T11:45:48;98846.06;;;23.57;53.20
14882;BME280;7533;51.278;12.588;2024-02-26T11:50:55;98839.09;;;23.64;53.18
14882;BME280;7533;51.278;12.588;2024-02-26T11:56:14;98833.25;;;23.68;52.75
14882;BME280;7533;51.278;12.588;2024-02-26T12:01:44;98835.44;;;23.73;52.97
14882;BME280;7533;51.278;12.588;2024-02-26T12:06:50;98845.09;;;23.75;53.05
14882;BME280;7533;51.278;12.588;2024-02-26T12:11:54;98849.50;;;23.77;52.91
14882;BME280;7533;51.278;12.588;2024-02-26T12:16:59;98850.91;;;23.81;53.09
14882;BME280;7533;51.278;12.588;2024-02-26T12:22:03;98846.50;;;23.80;53.10
14882;BME280;7533;51.278;12.588;2024-02-26T12:27:09;98860.31;;;23.77;53.48
14882;BME280;7533;51.278;12.588;2024-02-26T12:32:13;98856.31;;;23.81;53.44
14882;BME280;7533;51.278;12.588;2024-02-26T12:37:16;98859.69;;;23.83;53.42
14882;BME280;7533;51.278;12.588;2024-02-26T12:42:19;98867.50;;;23.86;53.18
14882;BME280;7533;51.278;12.588;2024-02-26T12:47:24;98870.28;;;23.76;53.42
14882;BME280;7533;51.278;12.588;2024-02-26T12:52:26;98876.34;;;23.78;53.50
14882;BME280;7533;51.278;12.588;2024-02-26T12:57:30;98881.63;;;23.80;53.62
14882;BME280;7533;51.278;12.588;2024-02-26T13:02:36;98887.88;;;23.80;53.67
14882;BME280;7533;51.278;12.588;2024-02-26T13:07:43;98884.38;;;23.88;53.65
14882;BME280;7533;51.278;12.588;2024-02-26T13:12:47;98899.16;;;22.18;48.40
14882;BME280;7533;51.278;12.588;2024-02-26T13:17:53;98903.97;;;21.86;47.08
14882;BME280;7533;51.278;12.588;2024-02-26T13:23:01;98916.00;;;21.53;46.15
14882;BME280;7533;51.278;12.588;2024-02-26T13:28:08;98916.50;;;21.27;46.00
14882;BME280;7533;51.278;12.588;2024-02-26T13:33:13;98923.00;;;22.60;45.14
14882;BME280;7533;51.278;12.588;2024-02-26T13:38:16;98917.41;;;22.91;45.92
14882;BME280;7533;51.278;12.588;2024-02-26T13:43:19;98933.94;;;23.06;46.56
14882;BME280;7533;51.278;12.588;2024-02-26T13:48:24;98951.66;;;23.18;47.48
14882;BME280;7533;51.278;12.588;2024-02-26T13:53:27;98937.63;;;23.32;47.63
14882;BME280;7533;51.278;12.588;2024-02-26T13:58:34;98946.78;;;23.49;48.44
14882;BME280;7533;51.278;12.588;2024-02-26T14:03:39;98954.41;;;23.63;48.32
14882;BME280;7533;51.278;12.588;2024-02-26T14:08:42;98950.69;;;23.82;47.99
14882;BME280;7533;51.278;12.588;2024-02-26T14:13:45;98955.25;;;23.99;49.76
14882;BME280;7533;51.278;12.588;2024-02-26T14:18:50;98965.16;;;24.09;49.19
14882;BME280;7533;51.278;12.588;2024-02-26T14:23:53;98976.56;;;24.02;50.54
14882;BME280;7533;51.278;12.588;2024-02-26T14:28:57;98992.31;;;24.07;50.18
14882;BME280;7533;51.278;12.588;2024-02-26T14:34:01;98986.91;;;24.07;50.32
14882;BME280;7533;51.278;12.588;2024-02-26T14:39:04;98982.03;;;24.11;50.52
14882;BME280;7533;51.278;12.588;2024-02-26T14:44:08;98985.59;;;24.11;50.47
14882;BME280;7533;51.278;12.588;2024-02-26T14:49:12;98980.91;;;24.13;50.41
14882;BME280;7533;51.278;12.588;2024-02-26T14:54:15;98974.03;;;24.19;50.65
14882;BME280;7533;51.278;12.588;2024-02-26T14:59:18;98976.72;;;24.19;50.80
14882;BME280;7533;51.278;12.588;2024-02-26T15:04:22;98971.00;;;24.22;51.11
14882;BME280;7533;51.278;12.588;2024-02-26T15:09:25;98977.09;;;24.24;50.93
14882;BME280;7533;51.278;12.588;2024-02-26T15:14:28;98988.44;;;24.27;51.04
14882;BME280;7533;51.278;12.588;2024-02-26T15:19:32;98987.75;;;24.25;51.36
14882;BME280;7533;51.278;12.588;2024-02-26T15:24:36;98988.78;;;24.24;51.67
14882;BME280;7533;51.278;12.588;2024-02-26T15:29:39;99004.28;;;24.22;51.88
14882;BME280;7533;51.278;12.588;2024-02-26T15:34:43;99011.38;;;24.23;51.66
14882;BME280;7533;51.278;12.588;2024-02-26T15:39:46;99005.13;;;24.23;51.89
14882;BME280;7533;51.278;12.588;2024-02-26T15:44:49;99004.13;;;24.24;52.04
14882;BME280;7533;51.278;12.588;2024-02-26T15:49:53;99001.56;;;24.22;52.02
14882;BME280;7533;51.278;12.588;2024-02-26T15:54:56;99013.41;;;24.21;52.20
14882;BME280;7533;51.278;12.588;2024-02-26T16:00:00;99028.38;;;24.16;52.40
14882;BME280;7533;51.278;12.588;2024-02-26T16:05:13;99033.25;;;24.12;52.72
14882;BME280;7533;51.278;12.588;2024-02-26T16:10:17;99051.78;;;24.07;52.88
14882;BME280;7533;51.278;12.588;2024-02-26T16:15:20;99065.22;;;23.99;52.96
14882;BME280;7533;51.278;12.588;2024-02-26T16:20:24;99085.59;;;23.93;53.34
14882;BME280;7533;51.278;12.588;2024-02-26T16:25:30;99095.22;;;23.96;53.42
14882;BME280;7533;51.278;12.588;2024-02-26T16:30:33;99107.22;;;24.11;53.08
14882;BME280;7533;51.278;12.588;2024-02-26T16:35:37;99110.94;;;24.10;52.97
14882;BME280;7533;51.278;12.588;2024-02-26T16:40:40;99114.47;;;23.93;53.34
14882;BME280;7533;51.278;12.588;2024-02-26T16:45:43;99120.91;;;23.82;53.58
14882;BME280;7533;51.278;12.588;2024-02-26T16:50:48;99131.63;;;23.74;53.68
14882;BME280;7533;51.278;12.588;2024-02-26T16:55:51;99138.16;;;23.71;53.75
14882;BME280;7533;51.278;12.588;2024-02-26T17:00:53;99148.41;;;23.68;53.67
14882;BME280;7533;51.278;12.588;2024-02-26T17:05:58;99154.38;;;23.71;53.68
14882;BME280;7533;51.278;12.588;2024-02-26T17:11:02;99157.69;;;23.93;53.58
14882;BME280;7533;51.278;12.588;2024-02-26T17:16:06;99171.19;;;24.02;54.32
14882;BME280;7533;51.278;12.588;2024-02-26T17:21:10;99179.69;;;24.08;55.05
14882;BME280;7533;51.278;12.588;2024-02-26T17:26:16;99185.47;;;24.13;55.34
14882;BME280;7533;51.278;12.588;2024-02-26T17:31:19;99176.06;;;24.17;55.24
14882;BME280;7533;51.278;12.588;2024-02-26T17:36:24;99181.47;;;24.17;55.33
14882;BME280;7533;51.278;12.588;2024-02-26T17:41:28;99199.19;;;24.29;54.63
14882;BME280;7533;51.278;12.588;2024-02-26T17:46:30;99201.25;;;24.45;54.47
14882;BME280;7533;51.278;12.588;2024-02-26T17:51:35;99208.16;;;24.57;53.88
14882;BME280;7533;51.278;12.588;2024-02-26T17:56:37;99201.84;;;24.66;53.70
14882;BME280;7533;51.278;12.588;2024-02-26T18:01:41;99206.63;;;24.72;53.64
14882;BME280;7533;51.278;12.588;2024-02-26T18:06:45;99208.09;;;24.85;53.37
14882;BME280;7533;51.278;12.588;2024-02-26T18:11:53;99224.44;;;24.93;53.15
14882;BME280;7533;51.278;12.588;2024-02-26T18:16:56;99221.78;;;25.01;53.29
14882;BME280;7533;51.278;12.588;2024-02-26T18:22:00;99227.16;;;25.11;53.12
14882;BME280;7533;51.278;12.588;2024-02-26T18:27:04;99241.47;;;25.21;53.06
14882;BME280;7533;51.278;12.588;2024-02-26T18:32:07;99240.53;;;25.30;52.94
14882;BME280;7533;51.278;12.588;2024-02-26T18:37:11;99240.44;;;25.40;52.72
14882;BME280;7533;51.278;12.588;2024-02-26T18:42:14;99246.63;;;25.50;52.52
14882;BME280;7533;51.278;12.588;2024-02-26T18:47:19;99259.25;;;25.59;52.00
14882;BME280;7533;51.278;12.588;2024-02-26T18:52:25;99257.25;;;25.69;51.89
14882;BME280;7533;51.278;12.588;2024-02-26T18:57:28;99262.22;;;25.74;51.70
14882;BME280;7533;51.278;12.588;2024-02-26T19:02:31;99268.41;;;25.84;51.74
14882;BME280;7533;51.278;12.588;2024-02-26T19:07:35;99279.16;;;25.94;51.57
14882;BME280;7533;51.278;12.588;2024-02-26T19:12:38;99289.03;;;26.03;51.02
14882;BME280;7533;51.278;12.588;2024-02-26T19:17:41;99291.97;;;26.09;50.82
14882;BME280;7533;51.278;12.588;2024-02-26T19:22:48;99289.59;;;26.15;50.84
14882;BME280;7533;51.278;12.588;2024-02-26T19:27:51;99291.66;;;26.21;50.69
14882;BME280;7533;51.278;12.588;2024-02-26T19:32:54;99300.88;;;26.28;50.26
14882;BME280;7533;51.278;12.588;2024-02-26T19:44:14;99305.19;;;26.38;50.24
14882;BME280;7533;51.278;12.588;2024-02-26T19:49:17;99317.59;;;26.41;50.25
14882;BME280;7533;51.278;12.588;2024-02-26T19:54:20;99325.72;;;26.41;50.04
14882;BME280;7533;51.278;12.588;2024-02-26T19:59:24;99334.78;;;26.50;49.85
14882;BME280;7533;51.278;12.588;2024-02-26T20:04:27;99337.50;;;26.58;49.92
14882;BME280;7533;51.278;12.588;2024-02-26T20:09:30;99347.72;;;26.64;49.52
14882;BME280;7533;51.278;12.588;2024-02-26T20:14:35;99339.09;;;26.69;49.57
14882;BME280;7533;51.278;12.588;2024-02-26T20:19:40;99338.97;;;26.78;49.35
14882;BME280;7533;51.278;12.588;2024-02-26T20:24:44;99350.50;;;26.80;49.08
14882;BME280;7533;51.278;12.588;2024-02-26T20:29:48;99361.41;;;26.88;49.10
14882;BME280;7533;51.278;12.588;2024-02-26T20:34:53;99376.03;;;26.96;49.03
14882;BME280;7533;51.278;12.588;2024-02-26T20:39:56;99386.72;;;26.97;48.98
14882;BME280;7533;51.278;12.588;2024-02-26T20:45:00;99388.41;;;26.98;48.85
14882;BME280;7533;51.278;12.588;2024-02-26T20:50:04;99395.75;;;27.06;48.82
14882;BME280;7533;51.278;12.588;2024-02-26T20:55:07;99390.47;;;27.04;48.82
14882;BME280;7533;51.278;12.588;2024-02-26T21:00:13;99392.41;;;27.12;48.49
14882;BME280;7533;51.278;12.588;2024-02-26T21:05:16;99403.59;;;27.09;48.67
14882;BME280;7533;51.278;12.588;2024-02-26T21:10:19;99399.06;;;26.92;48.77
14882;BME280;7533;51.278;12.588;2024-02-26T21:15:27;99401.22;;;26.80;49.03
14882;BME280;7533;51.278;12.588;2024-02-26T21:20:30;99405.28;;;26.76;49.06
14882;BME280;7533;51.278;12.588;2024-02-26T21:25:34;99409.81;;;26.67;49.28
14882;BME280;7533;51.278;12.588;2024-02-26T21:30:38;99408.34;;;26.73;49.25
14882;BME280;7533;51.278;12.588;2024-02-26T21:35:41;99433.44;;;26.75;49.72
14882;BME280;7533;51.278;12.588;2024-02-26T21:40:44;99431.75;;;26.74;49.12
14882;BME280;7533;51.278;12.588;2024-02-26T21:45:49;99438.66;;;26.68;49.29
14882;BME280;7533;51.278;12.588;2024-02-26T21:50:51;99447.84;;;26.67;49.47
14882;BME280;7533;51.278;12.588;2024-02-26T21:55:56;99458.81;;;26.66;49.61
14882;BME280;7533;51.278;12.588;2024-02-26T22:01:00;99466.34;;;26.72;49.42
14882;BME280;7533;51.278;12.588;2024-02-26T22:06:04;99464.63;;;26.71;49.42
14882;BME280;7533;51.278;12.588;2024-02-26T22:11:14;99478.75;;;26.74;49.47
14882;BME280;7533;51.278;12.588;2024-02-26T22:16:19;99474.00;;;26.76;49.58
14882;BME280;7533;51.278;12.588;2024-02-26T22:21:22;99491.13;;;26.77;49.88
14882;BME280;7533;51.278;12.588;2024-02-26T22:26:25;99497.28;;;26.79;49.53
14882;BME280;7533;51.278;12.588;2024-02-26T22:31:29;99492.53;;;26.81;49.75
14882;BME280;7533;51.278;12.588;2024-02-26T22:36:37;99498.50;;;26.84;49.65
14882;BME280;7533;51.278;12.588;2024-02-26T22:41:40;99502.22;;;26.83;49.88
14882;BME280;7533;51.278;12.588;2024-02-26T22:46:45;99504.59;;;26.86;49.87
14882;BME280;7533;51.278;12.588;2024-02-26T22:51:48;99503.44;;;26.89;49.65
14882;BME280;7533;51.278;12.588;2024-02-26T22:56:51;99503.97;;;26.93;49.74
14882;BME280;7533;51.278;12.588;2024-02-26T23:01:56;99509.09;;;26.96;49.67
14882;BME280;7533;51.278;12.588;2024-02-26T23:06:59;99514.72;;;27.02;49.56
14882;BME280;7533;51.278;12.588;2024-02-26T23:12:04;99519.94;;;27.22;49.17
14882;BME280;7533;51.278;12.588;2024-02-26T23:17:08;99524.41;;;27.31;49.05
14882;BME280;7533;51.278;12.588;2024-02-26T23:22:11;99515.97;;;27.42;48.76
14882;BME280;7533;51.278;12.588;2024-02-26T23:27:14;99524.28;;;27.40;48.79
14882;BME280;7533;51.278;12.588;2024-02-26T23:32:19;99529.53;;;27.42;48.75
14882;BME280;7533;51.278;12.588;2024-02-26T23:37:21;99533.59;;;27.38;48.81
14882;BME280;7533;51.278;12.588;2024-02-26T23:42:24;99535.63;;;27.36;48.93
14882;BME280;7533;51.278;12.588;2024-02-26T23:47:30;99542.56;;;27.30;48.97
14882;BME280;7533;51.278;12.588;2024-02-26T23:52:32;99541.34;;;27.25;49.02
14882;BME280;7533;51.278;12.588;2024-02-26T23:57:35;99538.63;;;26.99;49.36
